createdAt,value
2022-11-18T00:02:15.682Z,99466.91
2022-11-18T00:04:43.394Z,99474.59
2022-11-18T00:07:11.173Z,99475.19
2022-11-18T00:09:38.838Z,99485.72
2022-11-18T00:12:24.206Z,99480.78
2022-11-18T00:14:53.198Z,99487.41
2022-11-18T00:17:20.879Z,99486.16
2022-11-18T00:19:48.530Z,99489.41
2022-11-18T00:22:16.155Z,99496.50
2022-11-18T00:24:43.806Z,99497.56
2022-11-18T00:27:11.564Z,99509.94
2022-11-18T00:29:39.264Z,99503.41
2022-11-18T00:32:08.364Z,99508.41
2022-11-18T00:34:36.046Z,99510.75
2022-11-18T00:37:04.475Z,99508.41
2022-11-18T00:39:32.166Z,99510.56
2022-11-18T00:42:17.539Z,99517.69
2022-11-18T00:44:45.207Z,99514.84
2022-11-18T00:47:14.273Z,99520.72
2022-11-18T00:49:41.982Z,99523.63
2022-11-18T00:52:09.664Z,99528.41
2022-11-18T00:54:37.507Z,99532.88
2022-11-18T00:57:05.465Z,99532.41
2022-11-18T00:59:33.541Z,99539.25
2022-11-18T01:02:01.310Z,99537.97
2022-11-18T01:04:30.446Z,99542.16
2022-11-18T01:06:58.160Z,99536.63
2022-11-18T01:09:25.882Z,99546.06
2022-11-18T01:12:11.233Z,99538.47
2022-11-18T01:14:38.956Z,99545.09
2022-11-18T01:17:06.666Z,99551.44
2022-11-18T01:19:36.106Z,99552.50
2022-11-18T01:22:04.103Z,99557.00
2022-11-18T01:24:32.707Z,99557.56
2022-11-18T01:27:00.503Z,99557.09
2022-11-18T01:29:28.366Z,99562.66
2022-11-18T01:32:22.597Z,99568.22
2022-11-18T01:34:45.049Z,99571.91
2022-11-18T01:37:13.233Z,99580.09
2022-11-18T01:39:40.742Z,99575.91
2022-11-18T01:42:15.168Z,99577.47
2022-11-18T01:44:59.261Z,99584.09
2022-11-18T01:47:31.238Z,99582.25
2022-11-18T01:50:00.830Z,99600.16
2022-11-18T01:52:29.579Z,99590.72
2022-11-18T01:55:04.728Z,99596.00
2022-11-18T01:57:33.166Z,99600.75
2022-11-18T02:00:03.954Z,99595.03
2022-11-18T02:02:34.026Z,99600.56
2022-11-18T02:05:04.183Z,99591.13
2022-11-18T02:07:33.778Z,99596.66
2022-11-18T02:10:04.760Z,99597.75
2022-11-18T02:12:32.875Z,99603.00
2022-11-18T02:15:01.923Z,99600.66
2022-11-18T02:17:44.023Z,99604.38
2022-11-18T02:20:25.486Z,99606.22
2022-11-18T02:23:18.160Z,99611.78
2022-11-18T02:26:00.804Z,99613.63
2022-11-18T02:28:38.932Z,99619.19
2022-11-18T02:31:15.932Z,99623.66
2022-11-18T02:33:52.325Z,99619.44
2022-11-18T02:36:23.851Z,99623.91
2022-11-18T02:38:57.018Z,99620.53
2022-11-18T02:41:28.991Z,99621.28
2022-11-18T02:44:01.681Z,99618.97
2022-11-18T02:46:34.539Z,99625.00
2022-11-18T02:49:05.733Z,99636.59
2022-11-18T02:51:35.598Z,99634.75
2022-11-18T02:54:08.163Z,99632.41
2022-11-18T02:56:37.585Z,99624.22
2022-11-18T02:59:06.289Z,99633.69
2022-11-18T03:01:37.175Z,99637.88
2022-11-18T03:04:05.293Z,99640.22
2022-11-18T03:06:36.547Z,99642.06
2022-11-18T03:09:11.775Z,99644.41
2022-11-18T03:11:50.514Z,99645.19
2022-11-18T03:14:25.952Z,99649.66
2022-11-18T03:17:00.811Z,99651.25
2022-11-18T03:19:48.970Z,99653.06
2022-11-18T03:22:25.030Z,99658.03
2022-11-18T03:25:01.804Z,99669.06
2022-11-18T03:27:35.777Z,99663.78
2022-11-18T03:30:08.128Z,99666.16
2022-11-18T03:32:41.388Z,99666.16
2022-11-18T03:35:13.819Z,99670.31
2022-11-18T03:37:42.712Z,99671.59
2022-11-18T03:40:16.727Z,99681.56
2022-11-18T03:42:48.051Z,99683.88
2022-11-18T03:45:20.851Z,99684.97
2022-11-18T03:47:56.281Z,99689.16
2022-11-18T03:50:28.638Z,99691.78
2022-11-18T03:52:57.361Z,99699.09
2022-11-18T03:55:28.669Z,99700.69
2022-11-18T03:58:01.632Z,99706.13
2022-11-18T04:00:34.793Z,99698.53
2022-11-18T04:03:04.300Z,99697.75
2022-11-18T04:05:36.297Z,99710.13
2022-11-18T04:08:08.454Z,99723.28
2022-11-18T04:10:40.109Z,99717.44
2022-11-18T04:13:10.807Z,99719.59
2022-11-18T04:15:41.699Z,99717.44
2022-11-18T04:18:11.225Z,99731.66
2022-11-18T04:20:39.746Z,99736.75
2022-11-18T04:23:08.862Z,99724.63
2022-11-18T04:25:36.905Z,99732.84
2022-11-18T04:28:05.029Z,99739.94
2022-11-18T04:30:33.246Z,99736.53
2022-11-18T04:33:00.787Z,99740.25
2022-11-18T04:35:30.594Z,99743.91
2022-11-18T04:37:58.271Z,99745.78
2022-11-18T04:40:25.924Z,99753.19
2022-11-18T04:42:53.574Z,99751.91
2022-11-18T04:45:21.297Z,99759.78
2022-11-18T04:47:49.026Z,99764.56
2022-11-18T04:50:17.120Z,99763.50
2022-11-18T04:52:46.122Z,99773.53
2022-11-18T04:55:13.808Z,99772.75
2022-11-18T04:57:41.528Z,99765.13
2022-11-18T05:00:10.033Z,99769.63
2022-11-18T05:02:37.719Z,99767.28
2022-11-18T05:05:05.938Z,99775.16
2022-11-18T05:07:33.524Z,99775.16
2022-11-18T05:10:02.664Z,99778.88
2022-11-18T05:12:47.728Z,99778.38
2022-11-18T05:15:15.543Z,99784.69
2022-11-18T05:17:43.258Z,99794.16
2022-11-18T05:20:12.246Z,99789.19
2022-11-18T05:22:39.976Z,99789.97
2022-11-18T05:25:10.169Z,99792.59
2022-11-18T05:27:37.877Z,99803.13
2022-11-18T05:30:06.840Z,99800.78
2022-11-18T05:32:34.558Z,99808.94
2022-11-18T05:35:02.462Z,99814.50
2022-11-18T05:37:32.744Z,99817.44
2022-11-18T05:40:00.451Z,99826.38
2022-11-18T05:42:46.218Z,99820.63
2022-11-18T05:45:15.949Z,99827.72
2022-11-18T05:47:57.515Z,99824.03
2022-11-18T05:50:25.187Z,99831.94
2022-11-18T05:52:53.056Z,99827.44
2022-11-18T05:55:23.496Z,99834.81
2022-11-18T05:57:52.579Z,99829.06
2022-11-18T06:00:20.856Z,99835.41
2022-11-18T06:02:52.852Z,99840.66
2022-11-18T06:05:23.115Z,99842.78
2022-11-18T06:07:50.864Z,99845.16
2022-11-18T06:10:22.446Z,99846.50
2022-11-18T06:12:55.462Z,99848.34
2022-11-18T06:15:26.372Z,99852.31
2022-11-18T06:17:58.203Z,99852.59
2022-11-18T06:20:26.100Z,99858.13
2022-11-18T06:22:56.962Z,99854.72
2022-11-18T06:25:26.000Z,99860.25
2022-11-18T06:27:57.476Z,99865.53
2022-11-18T06:30:25.142Z,99879.75
2022-11-18T06:32:52.830Z,99878.97
2022-11-18T06:35:20.863Z,99875.84
2022-11-18T06:37:48.755Z,99882.94
2022-11-18T06:40:16.913Z,99878.72
2022-11-18T06:43:02.080Z,99887.69
2022-11-18T06:45:31.288Z,99892.97
2022-11-18T06:48:00.355Z,99900.34
2022-11-18T06:50:28.194Z,99904.03
2022-11-18T06:52:55.836Z,99908.78
2022-11-18T06:55:23.703Z,99915.38
2022-11-18T06:57:51.355Z,99913.31
2022-11-18T07:00:19.731Z,99921.28
2022-11-18T07:02:48.690Z,99927.38
2022-11-18T07:05:16.565Z,99930.00
2022-11-18T07:07:44.285Z,99928.72
2022-11-18T07:10:12.044Z,99929.75
2022-11-18T07:12:42.611Z,99933.44
2022-11-18T07:15:11.188Z,99933.44
2022-11-18T07:17:38.867Z,99932.69
2022-11-18T07:20:09.165Z,99937.16
2022-11-18T07:22:36.974Z,99947.13
2022-11-18T07:25:04.868Z,99949.47
2022-11-18T07:27:32.571Z,99955.22
2022-11-18T07:30:00.200Z,99961.47
2022-11-18T07:32:27.864Z,99964.63
2022-11-18T07:34:55.499Z,99967.75
2022-11-18T07:37:24.624Z,99971.94
2022-11-18T07:39:52.275Z,99979.28
2022-11-18T07:42:20.000Z,99983.50
2022-11-18T07:44:47.720Z,99986.63
2022-11-18T07:47:15.473Z,99992.38
2022-11-18T07:49:43.170Z,99994.66
2022-11-18T07:52:11.019Z,99991.50
2022-11-18T07:54:40.061Z,100003.00
2022-11-18T07:57:07.912Z,100007.44
2022-11-18T07:59:35.584Z,100008.72
2022-11-18T08:02:03.531Z,100004.75
2022-11-18T08:04:31.363Z,100018.91
2022-11-18T08:06:59.035Z,100020.44
2022-11-18T08:09:26.822Z,100024.84
2022-11-18T08:11:55.911Z,100032.41
2022-11-18T08:14:24.268Z,100031.25
2022-11-18T08:16:52.060Z,100034.06
2022-11-18T08:19:21.205Z,100032.66
2022-11-18T08:21:48.943Z,100038.88
2022-11-18T08:24:16.719Z,100040.06
2022-11-18T08:26:44.488Z,100045.50
2022-11-18T08:29:13.536Z,100041.72
2022-11-18T08:31:41.615Z,100039.03
2022-11-18T08:34:09.371Z,100048.41
2022-11-18T08:36:38.933Z,100055.47
2022-11-18T08:39:08.503Z,100054.34
2022-11-18T08:41:38.453Z,100061.59
2022-11-18T08:44:07.396Z,100069.66
2022-11-18T08:46:36.482Z,100066.34
2022-11-18T08:49:04.297Z,100065.72
2022-11-18T08:51:32.046Z,100065.03
2022-11-18T08:53:59.963Z,100069.19
2022-11-18T08:56:27.762Z,100073.78
2022-11-18T08:58:55.581Z,100076.69
2022-11-18T09:01:23.474Z,100071.03
2022-11-18T09:03:52.720Z,100068.00
2022-11-18T09:06:22.673Z,100079.25
2022-11-18T09:08:50.427Z,100087.09
2022-11-18T09:11:19.877Z,100088.06
2022-11-18T09:14:25.875Z,100093.47
2022-11-18T09:16:36.343Z,100092.63
2022-11-18T09:19:31.583Z,100092.50
2022-11-18T09:21:53.241Z,100096.16
2022-11-18T09:24:21.220Z,100102.97
2022-11-18T09:26:49.890Z,100105.53
2022-11-18T09:29:17.698Z,100102.78
2022-11-18T09:31:45.750Z,100114.06
2022-11-18T09:34:14.867Z,100114.72
2022-11-18T09:36:42.565Z,100113.94
2022-11-18T09:39:10.301Z,100115.50
2022-11-18T09:41:45.687Z,100120.00
2022-11-18T09:44:48.510Z,100120.00
2022-11-18T09:47:26.034Z,100124.41
2022-11-18T09:49:57.167Z,100128.25
2022-11-18T09:52:34.291Z,100130.47
2022-11-18T09:55:06.400Z,100127.44
2022-11-18T09:57:40.401Z,100132.53
2022-11-18T10:00:15.637Z,100139.19
2022-11-18T10:02:53.412Z,100144.84
2022-11-18T10:05:24.558Z,100147.31
2022-11-18T10:08:04.407Z,100145.25
2022-11-18T10:10:46.291Z,100149.13
2022-11-18T10:13:24.989Z,100157.03
2022-11-18T10:16:01.446Z,100164.81
2022-11-18T10:21:38.625Z,100169.53
2022-11-18T10:24:13.467Z,100171.47
2022-11-18T10:26:42.732Z,100175.38
2022-11-18T10:29:10.891Z,100173.81
2022-11-18T10:31:39.715Z,100183.91
2022-11-18T10:34:11.330Z,100186.81
2022-11-18T10:36:41.387Z,100186.06
2022-11-18T10:39:13.208Z,100183.28
2022-11-18T10:41:44.933Z,100183.97
2022-11-18T10:44:34.247Z,100185.81
2022-11-18T10:47:32.864Z,100188.00
2022-11-18T10:50:03.144Z,100184.28
2022-11-18T10:52:32.138Z,100183.75
2022-11-18T10:55:21.943Z,100180.25
2022-11-18T10:57:53.574Z,100185.09
2022-11-18T11:00:40.126Z,100194.69
2022-11-18T11:03:25.195Z,100186.25
2022-11-18T11:06:22.268Z,100183.63
2022-11-18T11:08:52.754Z,100187.06
2022-11-18T11:11:28.756Z,100190.03
2022-11-18T11:14:04.208Z,100196.66
2022-11-18T11:16:34.182Z,100194.00
2022-11-18T11:19:04.109Z,100200.69
2022-11-18T11:21:31.943Z,100202.38
2022-11-18T11:24:01.092Z,100200.44
2022-11-18T11:29:39.989Z,100204.09
2022-11-18T11:32:17.463Z,100209.16
2022-11-18T11:34:52.829Z,100203.88
2022-11-18T11:37:30.291Z,100215.59
2022-11-18T11:40:21.025Z,100219.97
2022-11-18T11:43:01.400Z,100214.09
2022-11-18T11:45:38.006Z,100216.69
2022-11-18T11:48:25.088Z,100212.56
2022-11-18T11:51:03.819Z,100211.41
2022-11-18T11:54:02.657Z,100222.09
2022-11-18T11:56:36.569Z,100218.38
2022-11-18T11:59:14.324Z,100219.97
2022-11-18T12:01:53.407Z,100224.44
2022-11-18T12:04:33.791Z,100224.28
2022-11-18T12:07:03.049Z,100224.81
2022-11-18T12:09:44.856Z,100226.25
2022-11-18T12:12:35.738Z,100237.69
2022-11-18T12:15:15.055Z,100238.28
2022-11-18T12:17:51.262Z,100235.09
2022-11-18T12:20:39.751Z,100237.69
2022-11-18T12:23:15.383Z,100236.50
2022-11-18T12:26:02.324Z,100232.28
2022-11-18T12:28:34.607Z,100238.56
2022-11-18T12:31:28.245Z,100245.41
2022-11-18T12:33:58.648Z,100248.47
2022-11-18T12:36:27.631Z,100252.53
2022-11-18T12:38:55.682Z,100248.28
2022-11-18T12:42:10.867Z,100257.94
2022-11-18T12:44:40.022Z,100248.41
2022-11-18T12:47:08.398Z,100253.94
2022-11-18T12:50:09.991Z,100250.53
2022-11-18T12:52:48.913Z,100262.69
2022-11-18T12:55:19.695Z,100263.03
2022-11-18T12:57:47.357Z,100274.25
2022-11-18T13:00:30.264Z,100266.88
2022-11-18T13:03:00.050Z,100269.69
2022-11-18T13:05:29.141Z,100268.72
2022-11-18T13:08:15.797Z,100267.66
2022-11-18T13:10:54.481Z,100277.66
2022-11-18T13:13:28.371Z,100273.41
2022-11-18T13:16:37.840Z,100271.97
2022-11-18T13:19:05.987Z,100279.88
2022-11-18T13:21:51.310Z,100278.91
2022-11-18T13:24:21.831Z,100280.44
2022-11-18T13:26:57.591Z,100279.06
2022-11-18T13:29:52.664Z,100282.81
2022-11-18T13:32:25.406Z,100284.03
2022-11-18T13:34:55.283Z,100288.88
2022-11-18T13:37:25.275Z,100289.63
2022-11-18T13:39:53.350Z,100286.78
2022-11-18T13:42:23.244Z,100296.44
2022-11-18T13:44:55.370Z,100301.06
2022-11-18T13:47:36.618Z,100304.03
2022-11-18T13:50:14.373Z,100310.72
2022-11-18T13:52:45.304Z,100299.66
2022-11-18T13:55:19.723Z,100296.69
2022-11-18T13:57:50.013Z,100303.69
2022-11-18T14:00:24.160Z,100312.06
2022-11-18T14:02:58.154Z,100308.50
2022-11-18T14:05:26.875Z,100305.84
2022-11-18T14:08:07.135Z,100303.63
2022-11-18T14:10:42.183Z,100308.72
2022-11-18T14:13:24.381Z,100311.50
2022-11-18T14:15:52.158Z,100304.81
2022-11-18T14:18:28.976Z,100311.03
2022-11-18T14:20:57.054Z,100309.47
2022-11-18T14:23:28.399Z,100307.41
2022-11-18T14:25:57.316Z,100306.31
2022-11-18T14:28:28.392Z,100312.81
2022-11-18T14:31:02.144Z,100319.81
2022-11-18T14:33:32.513Z,100324.31
2022-11-18T14:36:02.035Z,100332.38
2022-11-18T14:38:57.960Z,100326.59
2022-11-18T14:41:50.245Z,100336.13
2022-11-18T14:44:19.090Z,100334.53
2022-11-18T14:46:49.556Z,100335.59
2022-11-18T14:49:22.131Z,100340.44
2022-11-18T14:51:50.491Z,100344.16
2022-11-18T14:57:07.165Z,100343.69
2022-11-18T14:59:34.859Z,100348.78
2022-11-18T15:00:27.206Z,100346.63
2022-11-18T15:02:02.811Z,100351.44
2022-11-18T15:04:31.751Z,100354.19
2022-11-18T15:06:59.427Z,100353.59
2022-11-18T15:09:27.122Z,100355.75
2022-11-18T15:11:54.828Z,100359.00
2022-11-18T15:14:22.532Z,100361.94
2022-11-18T15:16:50.204Z,100364.38
2022-11-18T15:19:17.878Z,100370.00
2022-11-18T15:21:46.878Z,100368.72
2022-11-18T15:24:14.787Z,100372.44
2022-11-18T15:26:44.201Z,100374.59
2022-11-18T15:29:18.223Z,100375.19
2022-11-18T15:31:46.098Z,100376.28
2022-11-18T15:34:14.048Z,100380.00
2022-11-18T15:36:41.788Z,100379.81
2022-11-18T15:39:11.718Z,100380.59
2022-11-18T15:41:41.356Z,100384.31
2022-11-18T15:44:11.454Z,100383.25
2022-11-18T15:46:39.150Z,100385.91
2022-11-18T15:49:09.448Z,100386.16
2022-11-18T15:51:37.778Z,100391.47
2022-11-18T15:54:05.425Z,100393.31
2022-11-18T15:56:34.454Z,100392.56
2022-11-18T15:59:03.673Z,100392.06
2022-11-18T16:01:33.061Z,100400.28
2022-11-18T16:04:01.306Z,100405.56
2022-11-18T16:06:29.208Z,100409.00
2022-11-18T16:08:59.972Z,100411.19
2022-11-18T16:11:46.342Z,100400.38
2022-11-18T16:14:18.159Z,100408.44
2022-11-18T16:16:47.820Z,100407.34
2022-11-18T16:19:17.428Z,100409.19
2022-11-18T16:21:47.076Z,100413.22
2022-11-18T16:24:17.492Z,100413.81
2022-11-18T16:26:45.510Z,100417.53
2022-11-18T16:29:17.112Z,100414.41
2022-11-18T16:31:50.389Z,100418.09
2022-11-18T16:34:19.660Z,100416.81
2022-11-18T16:36:48.689Z,100426.13
2022-11-18T16:39:18.853Z,100419.25
2022-11-18T16:41:46.927Z,100429.03
2022-11-18T16:44:17.374Z,100425.13
2022-11-18T16:46:48.149Z,100430.41
2022-11-18T16:49:18.036Z,100430.41
2022-11-18T16:51:47.657Z,100435.69
2022-11-18T16:54:18.722Z,100434.41
2022-11-18T16:56:47.529Z,100441.06
2022-11-18T16:59:19.184Z,100439.78
2022-11-18T17:01:47.108Z,100453.81
2022-11-18T17:04:15.165Z,100446.47
2022-11-18T17:06:43.142Z,100445.69
2022-11-18T17:09:15.099Z,100457.63
2022-11-18T17:11:43.005Z,100454.69
2022-11-18T17:14:10.839Z,100457.72
2022-11-18T17:16:39.868Z,100464.06
2022-11-18T17:19:11.877Z,100461.41
2022-11-18T17:21:40.221Z,100465.66
2022-11-18T17:24:08.465Z,100473.88
2022-11-18T17:26:36.401Z,100475.72
2022-11-18T17:29:04.158Z,100479.44
2022-11-18T17:31:31.868Z,100472.28
2022-11-18T17:34:00.920Z,100484.72
2022-11-18T17:36:29.109Z,100487.84
2022-11-18T17:38:59.587Z,100488.94
2022-11-18T17:41:46.040Z,100494.25
2022-11-18T17:44:15.717Z,100497.94
2022-11-18T17:46:44.189Z,100495.31
2022-11-18T17:49:14.960Z,100500.09
2022-11-18T17:51:43.080Z,100493.25
2022-11-18T17:54:11.136Z,100506.19
2022-11-18T17:56:38.652Z,100508.31
2022-11-18T17:59:06.268Z,100513.63
2022-11-18T18:01:34.070Z,100514.97
2022-11-18T18:04:01.807Z,100520.63
2022-11-18T18:06:31.088Z,100522.84
2022-11-18T18:08:59.567Z,100523.72
2022-11-18T18:11:28.739Z,100528.78
2022-11-18T18:14:13.537Z,100529.13
2022-11-18T18:16:43.945Z,100535.28
2022-11-18T18:19:14.064Z,100534.56
2022-11-18T18:21:43.222Z,100541.19
2022-11-18T18:24:12.427Z,100544.19
2022-11-18T18:26:40.130Z,100542.41
2022-11-18T18:29:07.789Z,100544.53
2022-11-18T18:31:36.346Z,100539.25
2022-11-18T18:34:04.806Z,100546.19
2022-11-18T18:36:32.641Z,100545.44
2022-11-18T18:39:02.378Z,100556.88
2022-11-18T18:41:30.700Z,100558.78
2022-11-18T18:43:58.419Z,100555.41
2022-11-18T18:46:30.145Z,100551.25
2022-11-18T18:49:00.672Z,100554.22
2022-11-18T18:51:30.209Z,100557.44
2022-11-18T18:53:58.403Z,100557.22
2022-11-18T18:56:28.276Z,100561.69
2022-11-18T18:58:57.504Z,100569.13
2022-11-18T19:01:26.421Z,100569.16
2022-11-18T19:03:58.695Z,100567.66
2022-11-18T19:09:15.274Z,100578.50
2022-11-18T19:12:02.219Z,100581.44
2022-11-18T19:14:30.112Z,100591.25
2022-11-18T19:16:58.407Z,100580.72
2022-11-18T19:19:41.508Z,100587.69
2022-11-18T19:22:10.169Z,100589.59
2022-11-18T19:24:49.223Z,100599.09
2022-11-18T19:27:19.531Z,100593.84
2022-11-18T19:29:47.555Z,100595.72
2022-11-18T19:32:15.536Z,100608.41
2022-11-18T19:34:43.285Z,100602.63
2022-11-18T19:37:10.982Z,100603.72
2022-11-18T19:39:39.105Z,100613.53
2022-11-18T19:42:07.493Z,100609.88
2022-11-18T19:44:36.568Z,100624.91
2022-11-18T19:47:04.389Z,100621.00
2022-11-18T19:49:32.099Z,100615.25
2022-11-18T19:51:59.735Z,100627.66
2022-11-18T19:54:27.457Z,100627.97
2022-11-18T19:56:55.180Z,100639.34
2022-11-18T19:59:22.797Z,100642.78
2022-11-18T20:01:51.961Z,100635.97
2022-11-18T20:04:19.644Z,100643.91
2022-11-18T20:06:47.329Z,100646.53
2022-11-18T20:09:15.413Z,100656.84
2022-11-18T20:11:44.779Z,100654.75
2022-11-18T20:14:13.134Z,100660.81
2022-11-18T20:16:41.298Z,100660.00
2022-11-18T20:19:13.459Z,100672.13
2022-11-18T20:21:44.052Z,100679.75
2022-11-18T20:24:15.988Z,100680.31
2022-11-18T20:26:44.033Z,100681.41
2022-11-18T20:29:12.456Z,100687.97
2022-11-18T20:31:40.276Z,100694.03
2022-11-18T20:34:07.928Z,100691.13
2022-11-18T20:36:37.588Z,100689.81
2022-11-18T20:39:07.300Z,100705.59
2022-11-18T20:41:36.376Z,100702.69
2022-11-18T20:44:05.161Z,100706.13
2022-11-18T20:46:34.296Z,100710.03
2022-11-18T20:49:02.567Z,100719.50
2022-11-18T20:51:30.445Z,100712.66
2022-11-18T20:54:00.017Z,100719.72
2022-11-18T20:56:28.857Z,100716.84
2022-11-18T20:58:57.758Z,100720.22
2022-11-18T21:01:27.022Z,100714.66
2022-11-18T21:03:57.105Z,100719.13
2022-11-18T21:06:26.718Z,100727.50
2022-11-18T21:08:58.885Z,100721.22
2022-11-18T21:11:30.076Z,100719.09
2022-11-18T21:14:21.552Z,100726.19
2022-11-18T21:16:52.029Z,100716.44
2022-11-18T21:19:19.976Z,100723.75
2022-11-18T21:21:48.888Z,100726.91
2022-11-18T21:24:18.273Z,100733.72
2022-11-18T21:26:48.874Z,100735.28
2022-11-18T21:29:18.240Z,100726.06
2022-11-18T21:31:46.984Z,100728.38
2022-11-18T21:34:15.184Z,100736.78
2022-11-18T21:36:46.741Z,100741.50
2022-11-18T21:39:17.270Z,100744.69
2022-11-18T21:41:50.626Z,100742.28
2022-11-18T21:44:21.529Z,100749.91
2022-11-18T21:46:49.238Z,100752.97
2022-11-18T21:49:17.376Z,100767.66
2022-11-18T21:51:45.190Z,100761.59
2022-11-18T21:54:15.695Z,100766.06
2022-11-18T21:56:43.461Z,100770.75
2022-11-18T21:59:12.497Z,100772.31
2022-11-18T22:01:40.135Z,100778.06
2022-11-18T22:04:08.322Z,100774.34
2022-11-18T22:06:35.981Z,100777.19
2022-11-18T22:09:06.016Z,100776.66
2022-11-18T22:11:33.772Z,100791.06
2022-11-18T22:14:01.896Z,100792.09
2022-11-18T22:16:30.931Z,100800.72
2022-11-18T22:19:03.561Z,100809.66
2022-11-18T22:21:34.434Z,100805.69
2022-11-18T22:24:02.234Z,100805.66
2022-11-18T22:26:30.025Z,100805.34
2022-11-18T22:28:58.973Z,100806.09
2022-11-18T22:31:28.395Z,100816.78
2022-11-18T22:33:58.038Z,100816.25
2022-11-18T22:36:27.678Z,100813.34
2022-11-18T22:38:56.065Z,100809.59
2022-11-18T22:41:41.556Z,100805.63
2022-11-18T22:44:10.907Z,100806.38
2022-11-18T22:46:39.769Z,100810.28
2022-11-18T22:49:10.623Z,100815.00
2022-11-18T22:51:39.627Z,100824.41
2022-11-18T22:54:38.356Z,100818.34
2022-11-18T22:56:55.856Z,100822.03
2022-11-18T22:59:23.680Z,100822.03
2022-11-18T23:01:51.889Z,100821.78
2022-11-18T23:04:21.129Z,100822.81
2022-11-18T23:06:49.280Z,100822.81
2022-11-18T23:09:17.834Z,100826.97
2022-11-18T23:12:02.981Z,100836.84
2022-11-18T23:14:30.596Z,100838.13
2022-11-18T23:16:58.351Z,100839.94
2022-11-18T23:19:27.384Z,100846.53
2022-11-18T23:21:55.078Z,100850.75
2022-11-18T23:24:23.111Z,100848.66
2022-11-18T23:26:51.005Z,100848.59
2022-11-18T23:29:19.063Z,100849.16
2022-11-18T23:31:46.890Z,100857.53
2022-11-18T23:34:16.037Z,100859.88
2022-11-18T23:36:45.082Z,100856.25
2022-11-18T23:39:13.182Z,100862.25
2022-11-18T23:41:41.724Z,100864.34
2022-11-18T23:44:09.465Z,100872.44
2022-11-18T23:46:37.272Z,100873.47
2022-11-18T23:49:09.302Z,100868.97
2022-11-18T23:51:36.987Z,100875.81
2022-11-18T23:54:06.109Z,100877.38
2022-11-18T23:56:37.786Z,100874.22
2022-11-18T23:59:06.536Z,100872.63
